Time;durP1;ratioP1;P1;durP2;ratioP2;P2;SDS_P1;SDS_P2;PMS_P1;PMS_P2;Temp;Humidity;BMP_temperature;BMP_pressure;BME280_temperature;BME280_humidity;BME280_pressure;Samples;Min_cycle;Max_cycle;Signal;HPM_P1;HPM_P2
2023/08/04 00:00:22;;;;;;;11.90;10.52;;;;;;;-141.97;50.51;47311.50;5028556;28;20255;-86
2023/08/04 00:02:48;;;;;;;10.82;9.70;;;;;;;-141.97;50.55;47299.97;5048398;28;20609;-86
2023/08/04 00:05:13;;;;;;;11.82;10.02;;;;;;;-141.97;50.55;47359.56;5050589;28;20934;-86
2023/08/04 00:07:39;;;;;;;10.60;9.55;;;;;;;-141.97;50.67;47138.53;5050569;28;20165;-85
2023/08/04 00:10:05;;;;;;;11.20;10.02;;;;;;;-141.97;50.76;47317.28;5066446;28;20169;-86
2023/08/04 00:12:31;;;;;;;13.15;9.93;;;;;;;-141.97;51.13;47276.91;5050415;28;20292;-87
2023/08/04 00:14:56;;;;;;;11.25;10.05;;;;;;;-141.97;51.03;47200.03;5052522;28;20164;-85
2023/08/04 00:17:22;;;;;;;11.82;10.00;;;;;;;-141.97;51.30;47346.09;5070860;28;20247;-85
2023/08/04 00:19:47;;;;;;;12.10;10.10;;;;;;;-141.97;51.07;47169.28;5043458;28;20167;-85
2023/08/04 00:22:12;;;;;;;12.85;9.93;;;;;;;-141.97;51.13;47594.03;5049739;28;20167;-86
2023/08/04 00:24:38;;;;;;;11.68;10.02;;;;;;;-141.97;51.30;47169.28;5050203;28;20164;-85
2023/08/04 00:27:03;;;;;;;11.05;9.95;;;;;;;-141.97;51.33;47276.91;5068768;28;20179;-86
2023/08/04 00:29:29;;;;;;;13.13;10.20;;;;;;;-141.97;51.47;47503.69;5070561;28;20216;-86
2023/08/04 00:31:55;;;;;;;13.18;9.77;;;;;;;-141.97;51.31;47324.97;5070510;28;20176;-86
2023/08/04 00:34:21;;;;;;;12.73;9.98;;;;;;;-141.97;51.39;47244.25;5052151;28;20190;-86
2023/08/04 00:36:47;;;;;;;11.43;10.02;;;;;;;-141.97;51.67;47257.69;5051606;28;20170;-85
2023/08/04 00:39:14;;;;;;;12.63;9.90;;;;;;;-141.97;51.70;47317.28;5052629;28;20278;-86
2023/08/04 00:41:39;;;;;;;11.10;9.95;;;;;;;-141.97;51.88;47572.91;5031287;28;20652;-86
2023/08/04 00:44:05;;;;;;;12.70;10.20;;;;;;;-141.97;51.74;47103.94;5031903;28;20169;-86
2023/08/04 00:46:31;;;;;;;11.32;10.13;;;;;;;-141.97;51.68;47561.38;5031485;28;20248;-85
2023/08/04 00:48:59;;;;;;;11.32;10.13;;;;;;;-141.97;51.81;47355.72;5033061;28;20169;-86
2023/08/04 00:51:25;;;;;;;10.80;9.68;;;;;;;-141.97;51.76;47346.09;5049149;28;20216;-85
2023/08/04 00:53:51;;;;;;;11.45;10.13;;;;;;;-141.97;51.85;47515.22;5081524;28;20256;-86
2023/08/04 00:56:16;;;;;;;11.50;9.90;;;;;;;-141.97;51.60;47342.25;5081721;28;20663;-86
2023/08/04 00:58:42;;;;;;;12.85;10.38;;;;;;;-141.97;52.11;47257.69;5065107;28;20204;-85
2023/08/04 01:01:07;;;;;;;11.85;10.02;;;;;;;-141.97;51.85;47451.81;5049705;28;20254;-87
2023/08/04 01:03:33;;;;;;;11.57;10.38;;;;;;;-141.97;52.27;47105.88;5054428;28;20229;-86
2023/08/04 01:06:36;;;;;;;12.00;10.38;;;;;;;-141.97;52.03;47334.56;5052150;28;20266;-86
2023/08/04 01:09:27;;;;;;;11.18;9.98;;;;;;;-141.97;52.43;47369.16;5052975;28;20166;-86
2023/08/04 01:12:12;;;;;;;12.40;10.00;;;;;;;-141.97;52.58;47219.25;5070121;28;20218;-87
2023/08/04 01:14:41;;;;;;;11.70;10.45;;;;;;;-141.97;52.45;47257.69;5052479;28;20691;-86
2023/08/04 01:17:29;;;;;;;11.27;10.05;;;;;;;-141.97;52.37;47221.19;5053458;28;20164;-86
2023/08/04 01:19:56;;;;;;;12.48;10.40;;;;;;;-141.97;52.60;47250.00;5053407;28;20208;-86
2023/08/04 01:22:22;;;;;;;13.48;9.90;;;;;;;-141.97;52.55;47257.69;5035027;28;20178;-85
2023/08/04 01:24:52;;;;;;;11.35;10.15;;;;;;;-141.97;52.59;47371.09;5047546;28;20701;-86
2023/08/04 01:27:31;;;;;;;12.15;10.70;;;;;;;-141.97;52.58;47361.47;5072950;28;20184;-87
2023/08/04 01:30:00;;;;;;;11.13;10.02;;;;;;;-141.97;52.80;47251.94;5088833;28;20171;-86
2023/08/04 01:32:26;;;;;;;11.38;10.18;;;;;;;-141.97;52.86;47136.63;5035361;28;20186;-86
2023/08/04 01:34:52;;;;;;;11.80;10.60;;;;;;;-141.97;52.61;47590.19;5052370;28;20231;-85
2023/08/04 01:37:17;;;;;;;15.35;10.32;;;;;;;-141.97;52.37;47369.16;5054612;28;20249;-86
2023/08/04 01:39:43;;;;;;;16.58;10.57;;;;;;;-141.97;52.63;47257.69;5072785;28;20188;-85
2023/08/04 01:42:08;;;;;;;13.70;10.77;;;;;;;-141.97;52.31;47346.09;5073130;28;20600;-86
2023/08/04 01:44:34;;;;;;;12.00;10.18;;;;;;;-141.97;52.46;47265.38;5072895;28;20159;-85
2023/08/04 01:46:59;;;;;;;12.77;10.40;;;;;;;-141.97;52.70;47357.63;5056162;28;20193;-84
2023/08/04 01:49:25;;;;;;;13.60;10.70;;;;;;;-141.97;53.01;47586.34;5077987;28;20661;-83
2023/08/04 01:51:50;;;;;;;12.93;10.52;;;;;;;-141.97;53.05;47205.81;5072218;28;20192;-85
2023/08/04 01:54:16;;;;;;;11.98;10.73;;;;;;;-141.97;53.08;47207.72;5088002;28;20511;-85
2023/08/04 01:56:41;;;;;;;12.55;10.55;;;;;;;-141.97;53.15;47432.59;5064503;28;20168;-86
2023/08/04 01:59:07;;;;;;;15.93;10.32;;;;;;;-141.97;53.21;47584.44;5051517;28;20225;-86
2023/08/04 02:01:32;;;;;;;12.25;10.27;;;;;;;-141.97;54.05;47255.78;5034641;28;20255;-86
2023/08/04 02:03:58;;;;;;;11.02;9.88;;;;;;;-141.97;54.06;47555.59;5051970;28;20166;-85
2023/08/04 02:06:23;;;;;;;11.73;10.32;;;;;;;-141.97;54.10;47584.44;5052176;28;20197;-87
2023/08/04 02:08:48;;;;;;;11.70;10.50;;;;;;;-141.97;54.37;47419.13;5041068;28;20172;-86
2023/08/04 02:11:14;;;;;;;11.80;10.48;;;;;;;-141.97;54.82;47180.81;5071658;28;20214;-86
2023/08/04 02:13:39;;;;;;;12.95;10.65;;;;;;;-141.97;55.20;47311.50;5061474;28;20227;-87
2023/08/04 02:16:04;;;;;;;13.93;11.02;;;;;;;-141.97;55.15;47303.81;5042761;28;20186;-86
2023/08/04 02:18:30;;;;;;;14.20;11.23;;;;;;;-141.97;54.94;47251.94;5034111;28;20169;-86
2023/08/04 02:20:55;;;;;;;12.73;11.02;;;;;;;-141.97;55.46;47380.69;5049189;28;20192;-85
2023/08/04 02:23:21;;;;;;;13.50;10.73;;;;;;;-141.97;55.45;47388.38;5053984;28;20296;-85
2023/08/04 02:25:46;;;;;;;14.38;10.55;;;;;;;-141.97;56.07;47349.94;5087550;28;20166;-86
2023/08/04 02:28:11;;;;;;;14.00;10.85;;;;;;;-141.97;56.12;47261.53;5072163;28;20163;-86
2023/08/04 02:30:37;;;;;;;14.35;11.30;;;;;;;-141.97;56.11;47534.44;5053975;28;20253;-86
2023/08/04 02:33:02;;;;;;;13.55;10.98;;;;;;;-141.97;56.30;47211.56;5087675;28;20573;-86
2023/08/04 02:35:27;;;;;;;13.23;11.40;;;;;;;-141.97;56.75;47171.22;5054414;28;20258;-86
2023/08/04 02:37:53;;;;;;;12.75;11.32;;;;;;;-141.97;57.14;47411.44;5087433;28;20669;-86
2023/08/04 02:40:19;;;;;;;14.75;11.73;;;;;;;-141.97;57.22;47161.59;5074688;28;20274;-86
2023/08/04 02:42:44;;;;;;;13.13;11.38;;;;;;;-141.97;57.62;47578.66;5068132;28;20179;-84
2023/08/04 02:45:10;;;;;;;13.00;11.35;;;;;;;-141.97;57.66;47396.06;5089288;28;20174;-87
2023/08/04 02:47:36;;;;;;;13.07;11.68;;;;;;;-141.97;57.56;47230.78;5055293;28;20191;-87
2023/08/04 02:50:04;;;;;;;13.25;11.77;;;;;;;-141.97;57.70;47075.13;5054474;28;20536;-87
2023/08/04 02:52:29;;;;;;;13.05;11.63;;;;;;;-141.97;57.75;47334.56;5074393;28;20206;-87
2023/08/04 02:54:55;;;;;;;14.77;11.07;;;;;;;-141.97;57.47;47369.16;5074675;28;20641;-88
2023/08/04 02:57:20;;;;;;;14.63;11.30;;;;;;;-141.97;57.60;47603.66;5078959;28;20188;-86
2023/08/04 02:59:46;;;;;;;14.18;12.10;;;;;;;-141.97;57.98;47292.28;5084000;28;20295;-86
2023/08/04 03:02:11;;;;;;;12.48;11.18;;;;;;;-141.97;58.18;47261.53;5079627;28;20249;-87
2023/08/04 03:04:38;;;;;;;14.80;12.25;;;;;;;-141.97;58.49;47492.16;5072913;28;20167;-87
2023/08/04 03:07:04;;;;;;;13.88;11.52;;;;;;;-141.97;58.07;47392.22;5053951;28;20178;-86
2023/08/04 03:09:29;;;;;;;14.10;11.60;;;;;;;-141.97;58.18;47492.16;5053926;28;20193;-87
2023/08/04 03:11:55;;;;;;;16.05;12.18;;;;;;;-141.97;58.16;47261.53;5071049;28;20186;-86
2023/08/04 03:14:20;;;;;;;18.85;11.43;;;;;;;-141.97;57.75;47211.56;5049609;28;20298;-87
2023/08/04 03:16:45;;;;;;;14.15;11.98;;;;;;;-141.97;57.99;47588.28;5032721;28;20547;-87
2023/08/04 03:19:11;;;;;;;13.98;12.00;;;;;;;-141.97;57.45;47524.84;5068784;28;20286;-86
2023/08/04 03:21:36;;;;;;;15.80;11.35;;;;;;;-141.97;57.67;47296.13;5058212;28;20173;-87
2023/08/04 03:24:01;;;;;;;12.85;11.45;;;;;;;-141.97;57.94;47353.78;5048092;28;20200;-86
2023/08/04 03:26:29;;;;;;;14.20;11.80;;;;;;;-141.97;57.82;47392.22;5070861;28;20221;-86
2023/08/04 03:28:55;;;;;;;14.52;11.43;;;;;;;-141.97;57.56;47394.16;5085987;28;20202;-87
2023/08/04 03:31:20;;;;;;;14.40;12.20;;;;;;;-141.97;57.78;47611.34;5072348;28;20184;-87
2023/08/04 03:33:45;;;;;;;16.08;12.32;;;;;;;-141.97;57.58;47246.16;5054244;28;20175;-86
2023/08/04 03:36:11;;;;;;;15.25;11.88;;;;;;;-141.97;57.58;47378.78;5032618;28;20191;-86
2023/08/04 03:38:36;;;;;;;13.52;11.65;;;;;;;-141.97;57.83;47184.66;5032590;28;20307;-86
2023/08/04 03:41:02;;;;;;;14.35;11.32;;;;;;;-141.97;57.60;47394.16;5051312;28;20189;-88
2023/08/04 03:43:27;;;;;;;15.95;12.00;;;;;;;-141.97;57.32;47134.69;5032294;28;20607;-86
2023/08/04 03:45:53;;;;;;;13.77;12.27;;;;;;;-141.97;57.52;47115.47;5065942;28;20237;-87
2023/08/04 03:48:18;;;;;;;13.18;11.57;;;;;;;-141.97;57.46;47376.84;5050391;28;20206;-87
2023/08/04 03:50:44;;;;;;;14.68;11.80;;;;;;;-141.97;57.05;47188.50;5046767;28;20196;-86
2023/08/04 03:53:09;;;;;;;15.13;12.02;;;;;;;-141.97;57.33;47228.88;5067894;28;20627;-85
2023/08/04 03:55:34;;;;;;;15.38;11.77;;;;;;;-141.97;56.79;47188.50;5050704;28;20190;-87
2023/08/04 03:58:00;;;;;;;16.33;12.10;;;;;;;-141.97;56.88;47330.72;5032386;28;20164;-87
2023/08/04 04:00:25;;;;;;;14.43;12.02;;;;;;;-141.97;56.90;47365.31;5050424;28;20259;-87
2023/08/04 04:02:50;;;;;;;15.93;12.18;;;;;;;-141.97;56.92;47565.22;5051937;28;20190;-87
2023/08/04 04:05:16;;;;;;;13.90;12.40;;;;;;;-141.97;56.99;47250.00;5049736;28;20194;-86
2023/08/04 04:07:42;;;;;;;15.52;12.90;;;;;;;-141.97;56.78;47417.22;5065214;28;20174;-86
2023/08/04 04:10:07;;;;;;;16.15;12.15;;;;;;;-141.97;56.58;47382.63;5032400;28;20636;-86
2023/08/04 04:12:35;;;;;;;15.27;11.98;;;;;;;-141.97;56.48;47588.28;5066215;28;20649;-87
2023/08/04 04:15:01;;;;;;;18.05;11.90;;;;;;;-141.97;55.97;47382.63;5039192;28;20231;-86
2023/08/04 04:17:27;;;;;;;15.35;11.93;;;;;;;-141.97;55.91;47565.22;5049499;28;20162;-87
2023/08/04 04:19:52;;;;;;;15.00;12.73;;;;;;;-141.97;55.86;47246.16;5031775;28;20183;-86
2023/08/04 04:22:17;;;;;;;16.27;11.80;;;;;;;-141.97;56.01;47253.84;5052370;28;20620;-86
2023/08/04 04:24:43;;;;;;;15.50;12.15;;;;;;;-141.97;55.38;47228.88;5049994;28;20180;-87
2023/08/04 04:27:08;;;;;;;14.77;11.88;;;;;;;-141.97;54.95;47438.34;5031795;28;20237;-87
2023/08/04 04:29:35;;;;;;;14.90;12.32;;;;;;;-141.97;55.09;47601.72;5049587;28;20264;-87
2023/08/04 04:32:00;;;;;;;17.65;12.25;;;;;;;-141.97;54.90;47444.13;5036953;28;20291;-85
2023/08/04 04:34:25;;;;;;;15.43;12.00;;;;;;;-141.97;54.63;47572.91;5034901;28;20223;-86
2023/08/04 04:36:51;;;;;;;15.15;12.25;;;;;;;-141.97;54.37;47542.16;5049075;28;20188;-87
2023/08/04 04:39:16;;;;;;;17.80;12.90;;;;;;;-141.97;54.23;47257.69;5047475;28;20309;-87
2023/08/04 04:41:42;;;;;;;15.30;12.40;;;;;;;-141.97;53.38;47246.16;5012206;28;20574;-87
2023/08/04 04:44:07;;;;;;;15.55;12.18;;;;;;;-141.97;53.51;47244.25;5015627;28;20173;-87
2023/08/04 04:46:32;;;;;;;15.00;11.82;;;;;;;-141.97;53.82;47292.28;5049724;28;20192;-87
2023/08/04 04:48:58;;;;;;;17.00;12.77;;;;;;;-141.97;53.72;47236.56;5053506;28;20177;-87
2023/08/04 04:51:23;;;;;;;16.15;12.38;;;;;;;-141.97;53.38;47669.00;5034842;28;20228;-87
2023/08/04 04:53:49;;;;;;;14.35;12.30;;;;;;;-141.97;52.77;47192.34;5047762;28;20181;-87
2023/08/04 04:56:14;;;;;;;15.10;12.48;;;;;;;-141.97;52.72;47640.16;5056929;28;20185;-87
2023/08/04 04:58:40;;;;;;;17.42;12.73;;;;;;;-141.97;52.46;47357.63;5035717;28;20270;-87
2023/08/04 05:01:08;;;;;;;17.92;12.93;;;;;;;-141.97;52.23;47223.09;5053907;28;20172;-86
2023/08/04 05:03:33;;;;;;;16.42;13.38;;;;;;;-141.97;52.11;47624.78;5048507;28;20179;-86
2023/08/04 05:05:58;;;;;;;17.67;13.50;;;;;;;-141.97;52.27;47346.09;5053515;28;20257;-87
2023/08/04 05:08:24;;;;;;;16.90;13.27;;;;;;;-141.97;52.01;47323.03;5041697;28;20179;-82
2023/08/04 05:10:50;;;;;;;18.48;13.32;;;;;;;-141.97;51.64;47171.22;5055874;28;20303;-87
2023/08/04 05:13:16;;;;;;;14.30;12.02;;;;;;;-141.97;52.31;47376.84;5071183;28;20167;-87
2023/08/04 05:15:41;;;;;;;18.42;12.43;;;;;;;-141.97;52.22;47228.88;5053220;28;20183;-86
2023/08/04 05:18:06;;;;;;;16.52;12.43;;;;;;;-141.97;52.21;47542.16;5036345;28;20256;-86
2023/08/04 05:20:32;;;;;;;20.77;12.35;;;;;;;-141.97;51.79;47586.34;5054941;28;20598;-86
2023/08/04 05:22:57;;;;;;;15.48;12.73;;;;;;;-141.97;51.53;47546.00;5051998;28;20167;-88
2023/08/04 05:25:22;;;;;;;16.33;13.15;;;;;;;-141.97;51.78;47672.84;5036449;28;20658;-89
2023/08/04 05:27:50;;;;;;;16.58;12.40;;;;;;;-141.97;51.51;47401.84;5054511;28;20174;-86
2023/08/04 05:30:15;;;;;;;18.73;12.25;;;;;;;-141.97;51.01;47374.94;5054295;28;20164;-86
2023/08/04 05:32:41;;;;;;;16.40;13.05;;;;;;;-141.97;50.59;47100.09;5052843;28;20298;-87
2023/08/04 05:35:09;;;;;;;16.77;12.63;;;;;;;-141.97;50.34;47215.41;5051056;28;20168;-87
2023/08/04 05:37:34;;;;;;;17.10;12.60;;;;;;;-141.97;50.23;47515.22;5021687;28;20380;-88
2023/08/04 05:40:00;;;;;;;15.45;12.52;;;;;;;-141.97;49.82;47332.66;5054927;28;20630;-87
2023/08/04 05:42:25;;;;;;;17.85;12.85;;;;;;;-141.97;49.75;47351.88;5053890;28;20569;-86
2023/08/04 05:44:51;;;;;;;14.00;11.95;;;;;;;-141.97;48.74;47507.53;5054520;28;20266;-86
2023/08/04 05:47:17;;;;;;;16.48;11.93;;;;;;;-141.97;48.38;47269.22;5055782;28;20240;-90
2023/08/04 05:49:43;;;;;;;13.80;12.15;;;;;;;-141.97;48.29;47363.41;5038792;28;20202;-88
2023/08/04 05:52:08;;;;;;;15.00;11.88;;;;;;;-141.97;48.21;47447.97;5054182;28;20192;-88
2023/08/04 05:54:33;;;;;;;13.50;12.10;;;;;;;-141.97;48.53;47371.09;5048336;28;20177;-89
2023/08/04 05:56:59;;;;;;;17.70;12.13;;;;;;;-141.97;48.29;47203.88;5051368;28;20194;-90
2023/08/04 05:59:24;;;;;;;16.80;12.45;;;;;;;-141.97;47.54;47326.88;5054814;28;20537;-89
2023/08/04 06:01:53;;;;;;;13.60;12.00;;;;;;;-141.97;47.23;47453.72;5054891;28;20198;-88
2023/08/04 06:04:18;;;;;;;14.70;12.10;;;;;;;-141.97;47.89;47326.88;5054408;28;20230;-86
2023/08/04 06:06:44;;;;;;;17.20;12.10;;;;;;;-141.97;47.92;47349.94;5052795;28;20199;-83
2023/08/04 06:09:09;;;;;;;22.33;12.30;;;;;;;-141.97;48.46;47338.41;5052549;28;20170;-83
2023/08/04 06:11:34;;;;;;;16.80;12.68;;;;;;;-141.97;48.81;47128.94;5052168;28;20196;-86
2023/08/04 06:14:00;;;;;;;13.98;12.25;;;;;;;-141.97;48.97;47109.72;5052180;28;20176;-86
2023/08/04 06:16:25;;;;;;;13.95;12.07;;;;;;;-141.97;47.85;47096.25;5052190;28;20162;-84
2023/08/04 06:18:51;;;;;;;16.20;12.20;;;;;;;-141.97;46.95;47469.09;5071589;28;20209;-86
2023/08/04 06:21:16;;;;;;;15.82;11.73;;;;;;;-141.97;46.64;47640.16;5053846;28;20636;-88
2023/08/04 06:23:45;;;;;;;14.00;11.27;;;;;;;-141.97;45.87;47323.03;5087065;28;20522;-84
2023/08/04 06:26:12;;;;;;;13.48;11.95;;;;;;;-141.97;45.77;47338.41;5072232;28;20165;-84
2023/08/04 06:28:37;;;;;;;13.73;11.43;;;;;;;-141.97;45.77;47157.75;5072497;28;20159;-84
2023/08/04 06:31:02;;;;;;;14.60;11.52;;;;;;;-141.97;45.68;47305.75;5054501;28;20195;-84
2023/08/04 06:33:28;;;;;;;14.60;12.10;;;;;;;-141.97;45.20;47296.13;5066323;28;20321;-84
2023/08/04 06:35:53;;;;;;;14.50;11.73;;;;;;;-141.97;45.29;47376.84;5034512;28;20227;-84
2023/08/04 06:38:18;;;;;;;15.77;11.95;;;;;;;-141.97;44.97;47592.13;5052367;28;20263;-84
2023/08/04 06:40:44;;;;;;;14.43;11.80;;;;;;;-141.97;44.82;47321.13;5053344;28;20161;-84
2023/08/04 06:43:09;;;;;;;16.45;11.98;;;;;;;-141.97;45.11;47311.50;5052094;28;20187;-84
2023/08/04 06:45:35;;;;;;;14.85;11.82;;;;;;;-141.97;45.06;47159.69;5052159;28;20199;-84
2023/08/04 06:48:00;;;;;;;13.95;11.90;;;;;;;-141.97;44.56;47326.88;5053070;28;20188;-84
2023/08/04 06:50:26;;;;;;;16.27;11.70;;;;;;;-141.97;44.63;47551.75;5052807;28;20177;-84
2023/08/04 06:52:51;;;;;;;13.90;11.82;;;;;;;-141.97;44.28;47030.91;5033859;28;20305;-84
2023/08/04 06:55:16;;;;;;;14.32;11.70;;;;;;;-141.97;43.63;47303.81;5052292;28;20179;-85
2023/08/04 06:57:42;;;;;;;15.13;11.75;;;;;;;-141.97;43.19;47313.44;5051479;28;20223;-84
2023/08/04 07:00:10;;;;;;;17.30;12.15;;;;;;;-141.97;42.70;47482.56;5051874;28;20173;-84
2023/08/04 07:02:36;;;;;;;15.07;12.07;;;;;;;-141.97;42.89;47619.03;5031582;28;20250;-85
2023/08/04 07:05:03;;;;;;;16.83;12.65;;;;;;;-141.97;43.52;47323.03;5051584;28;20702;-86
2023/08/04 07:07:29;;;;;;;17.92;12.20;;;;;;;-141.97;42.77;47242.31;5051295;28;20258;-85
2023/08/04 07:09:54;;;;;;;14.05;11.73;;;;;;;-141.97;42.54;47324.97;5067738;28;20186;-85
2023/08/04 07:12:20;;;;;;;14.45;11.98;;;;;;;-141.97;42.92;47313.44;5056766;28;20203;-84
2023/08/04 07:14:45;;;;;;;13.43;11.93;;;;;;;-141.97;42.29;47071.28;5058369;28;20208;-83
2023/08/04 07:17:10;;;;;;;17.80;12.20;;;;;;;-141.97;41.65;47138.53;5066513;28;20195;-84
2023/08/04 07:19:36;;;;;;;13.48;11.82;;;;;;;-141.97;41.15;47286.53;5067813;28;20215;-84
2023/08/04 07:22:01;;;;;;;13.15;11.85;;;;;;;-141.97;41.11;47284.59;5059634;28;20233;-84
2023/08/04 07:24:27;;;;;;;14.70;12.15;;;;;;;-141.97;40.72;47261.53;5054124;28;20234;-82
2023/08/04 07:26:52;;;;;;;14.65;11.80;;;;;;;-141.97;41.06;47261.53;5052481;28;20173;-85
2023/08/04 07:29:17;;;;;;;16.45;12.55;;;;;;;-141.97;40.60;47271.16;5050799;28;20192;-85
2023/08/04 07:31:43;;;;;;;16.08;12.05;;;;;;;-141.97;40.29;47434.50;5051161;28;20200;-84
2023/08/04 07:34:08;;;;;;;13.95;11.70;;;;;;;-141.97;40.50;47299.97;5051475;28;20192;-84
2023/08/04 07:36:34;;;;;;;13.18;11.75;;;;;;;-141.97;40.73;47298.06;5054358;28;20204;-84
2023/08/04 07:38:59;;;;;;;13.60;11.95;;;;;;;-141.97;40.44;47415.28;5050359;28;20211;-83
2023/08/04 07:41:25;;;;;;;14.50;11.82;;;;;;;-141.97;40.18;47288.44;5063146;28;20235;-83
2023/08/04 07:43:51;;;;;;;13.73;11.55;;;;;;;-141.97;39.55;47286.53;5066543;28;20226;-83
2023/08/04 07:46:22;;;;;;;12.70;10.98;;;;;;;-141.97;39.85;47276.91;5052385;28;20161;-86
2023/08/04 07:48:49;;;;;;;14.40;12.23;;;;;;;-141.97;39.30;47225.03;5050513;28;20172;-85
2023/08/04 07:51:14;;;;;;;13.55;12.02;;;;;;;-141.97;39.44;47267.31;5045347;28;20192;-85
2023/08/04 07:53:39;;;;;;;16.02;11.57;;;;;;;-141.97;38.56;47230.78;5049549;28;20192;-85
2023/08/04 07:56:05;;;;;;;13.20;11.07;;;;;;;-141.97;39.16;47205.81;5051169;28;20567;-83
2023/08/04 07:58:30;;;;;;;13.10;11.73;;;;;;;-141.97;38.55;47015.53;5049020;28;20192;-84
2023/08/04 08:00:56;;;;;;;13.50;11.15;;;;;;;-141.97;38.00;46969.41;5051077;28;20188;-85
2023/08/04 08:03:21;;;;;;;13.63;11.57;;;;;;;-141.97;38.42;47084.72;5051736;28;20220;-85
2023/08/04 08:05:47;;;;;;;13.93;11.90;;;;;;;-141.97;38.99;47011.69;5052064;28;20165;-85
2023/08/04 08:08:13;;;;;;;13.30;11.90;;;;;;;-141.97;38.73;47236.56;5051528;28;20237;-85
2023/08/04 08:10:38;;;;;;;16.15;11.93;;;;;;;-141.97;39.07;47505.63;5051991;28;20187;-85
2023/08/04 08:13:04;;;;;;;12.27;11.07;;;;;;;-141.97;38.88;47242.31;5036040;28;20231;-85
2023/08/04 08:15:29;;;;;;;12.82;11.50;;;;;;;-141.97;38.64;46932.91;5065044;28;20749;-85
2023/08/04 08:17:54;;;;;;;13.55;11.63;;;;;;;-141.97;39.20;47238.47;5050778;28;20198;-84
2023/08/04 08:20:20;;;;;;;12.95;11.65;;;;;;;-141.97;38.55;47484.47;5050892;28;20204;-85
2023/08/04 08:22:45;;;;;;;16.02;11.65;;;;;;;-141.97;38.50;47278.84;5050580;28;20169;-85
2023/08/04 08:25:12;;;;;;;17.33;11.90;;;;;;;-141.97;38.60;47223.09;5043264;28;20177;-85
2023/08/04 08:27:38;;;;;;;13.20;11.90;;;;;;;-141.97;38.67;47255.78;5076079;28;20244;-87
2023/08/04 08:30:04;;;;;;;12.55;11.30;;;;;;;-141.97;38.30;47201.97;5070376;28;20192;-84
2023/08/04 08:32:29;;;;;;;13.82;10.68;;;;;;;-141.97;37.98;47457.56;5036191;28;20199;-84
2023/08/04 08:34:54;;;;;;;12.88;11.30;;;;;;;-141.97;38.19;47082.81;5050889;28;20173;-85
2023/08/04 08:37:20;;;;;;;12.40;11.20;;;;;;;-141.97;37.91;47230.78;5049678;28;20156;-84
2023/08/04 08:39:45;;;;;;;14.68;11.27;;;;;;;-141.97;38.31;47255.78;5032193;28;20665;-85
2023/08/04 08:42:11;;;;;;;15.05;11.77;;;;;;;-141.97;37.34;47027.06;5067321;28;20175;-86
2023/08/04 08:44:36;;;;;;;12.48;11.18;;;;;;;-141.97;37.47;47200.03;5068956;28;20165;-86
2023/08/04 08:47:02;;;;;;;13.50;12.02;;;;;;;-141.97;37.32;47207.72;5045867;28;20209;-85
2023/08/04 08:49:30;;;;;;;14.32;12.30;;;;;;;-141.97;36.79;47230.78;5049711;28;20300;-86
2023/08/04 08:51:58;;;;;;;13.45;12.15;;;;;;;-141.97;37.87;47326.88;5049666;28;20197;-84
2023/08/04 08:54:24;;;;;;;13.30;11.95;;;;;;;-141.97;38.18;47109.72;5049282;28;20166;-85
2023/08/04 08:56:52;;;;;;;14.23;12.52;;;;;;;-141.97;38.23;47463.34;5049445;28;20212;-85
2023/08/04 08:59:18;;;;;;;14.60;13.00;;;;;;;-141.97;37.68;47138.53;5048221;28;20180;-86
2023/08/04 09:01:44;;;;;;;14.82;12.65;;;;;;;-141.97;37.70;47226.94;5049405;28;20166;-86
2023/08/04 09:04:10;;;;;;;13.93;12.27;;;;;;;-141.97;37.70;47188.50;5074775;28;20212;-85
2023/08/04 09:06:35;;;;;;;14.73;12.77;;;;;;;-141.97;37.03;47180.81;5050119;28;20681;-81
2023/08/04 09:09:02;;;;;;;13.48;12.20;;;;;;;-141.97;36.85;47180.81;5037087;28;20181;-81
2023/08/04 09:11:31;;;;;;;14.27;12.90;;;;;;;-141.97;36.78;47171.22;5055882;28;20203;-81
2023/08/04 09:13:57;;;;;;;14.82;13.20;;;;;;;-141.97;36.40;47188.50;5069734;28;20164;-81
2023/08/04 09:16:36;;;;;;;15.82;12.43;;;;;;;-141.97;36.53;47159.69;5069239;28;20511;-81
2023/08/04 09:19:06;;;;;;;13.98;12.52;;;;;;;-141.97;36.53;47192.34;5069755;28;20523;-80
2023/08/04 09:21:36;;;;;;;14.70;12.27;;;;;;;-141.97;36.30;47176.97;5085741;28;20271;-81
2023/08/04 09:24:03;;;;;;;15.23;12.98;;;;;;;-141.97;36.47;47200.03;5084515;28;20169;-81
2023/08/04 09:26:41;;;;;;;13.90;12.48;;;;;;;-141.97;36.78;47190.44;5069220;28;20339;-81
2023/08/04 09:29:09;;;;;;;14.55;12.98;;;;;;;-141.97;36.09;47446.03;5022892;28;20229;-81
2023/08/04 09:31:36;;;;;;;14.32;12.82;;;;;;;-141.97;37.05;47205.81;5039284;28;20243;-82
2023/08/04 09:34:06;;;;;;;14.30;12.77;;;;;;;-141.97;36.36;47176.97;5052460;28;20166;-81
2023/08/04 09:36:37;;;;;;;14.00;12.55;;;;;;;-141.97;36.17;47134.69;5052184;28;20165;-81
2023/08/04 09:39:04;;;;;;;14.10;12.80;;;;;;;-141.97;36.33;47203.88;5053099;28;20692;-81
2023/08/04 09:41:33;;;;;;;14.60;13.20;;;;;;;-141.97;35.98;47198.09;5051568;28;20611;-81
2023/08/04 09:44:04;;;;;;;16.02;12.68;;;;;;;-141.97;36.59;47184.66;5052362;28;20161;-81
2023/08/04 09:46:29;;;;;;;14.63;13.07;;;;;;;-141.97;36.13;47449.88;5051938;28;20249;-81
2023/08/04 09:49:00;;;;;;;18.17;12.57;;;;;;;-141.97;36.62;47165.44;5052122;28;20161;-81
2023/08/04 09:51:26;;;;;;;14.48;12.98;;;;;;;-141.97;36.37;47188.50;5052028;28;20228;-81
2023/08/04 09:53:54;;;;;;;14.65;12.32;;;;;;;-141.97;35.99;47234.63;5058793;28;20177;-80
2023/08/04 09:56:23;;;;;;;15.15;12.55;;;;;;;-141.97;35.92;47203.88;5071479;28;20222;-81
2023/08/04 09:58:49;;;;;;;14.90;12.63;;;;;;;-141.97;35.24;47161.59;5073628;28;20163;-80
2023/08/04 10:01:16;;;;;;;18.13;13.07;;;;;;;-141.97;35.68;47196.19;5071949;28;20633;-81
2023/08/04 10:03:50;;;;;;;15.13;12.98;;;;;;;-141.97;35.23;47178.91;5056827;28;20185;-82
2023/08/04 10:06:16;;;;;;;17.27;13.18;;;;;;;-141.97;34.94;47165.44;5052049;28;20508;-80
2023/08/04 10:08:42;;;;;;;15.68;12.80;;;;;;;-141.97;34.91;47178.91;5057469;28;20189;-81
2023/08/04 10:11:08;;;;;;;14.93;12.52;;;;;;;-141.97;35.13;47453.72;5056471;28;20616;-83
2023/08/04 10:13:39;;;;;;;14.20;12.90;;;;;;;-141.97;35.52;47165.44;5052059;28;20171;-83
2023/08/04 10:16:08;;;;;;;14.10;12.77;;;;;;;-141.97;34.78;47190.44;5051673;28;20685;-82
2023/08/04 10:18:54;;;;;;;14.13;12.68;;;;;;;-141.97;35.46;47142.38;5051952;28;20170;-81
2023/08/04 10:21:27;;;;;;;14.27;12.82;;;;;;;-141.97;34.83;47067.44;5051651;28;20169;-82
2023/08/04 10:23:53;;;;;;;13.80;12.40;;;;;;;-141.97;35.05;47215.41;5051152;28;20614;-81
2023/08/04 10:26:19;;;;;;;13.75;12.32;;;;;;;-141.97;34.94;47084.72;5051746;28;20238;-83
2023/08/04 10:29:05;;;;;;;13.93;12.57;;;;;;;-141.97;35.02;47167.38;5062327;28;20207;-82
2023/08/04 10:31:51;;;;;;;13.98;12.48;;;;;;;-141.97;34.94;47157.75;5071853;28;20200;-82
2023/08/04 10:34:31;;;;;;;14.75;12.77;;;;;;;-141.97;34.74;47173.13;5047857;28;20209;-81
2023/08/04 10:37:10;;;;;;;14.38;12.80;;;;;;;-141.97;34.04;47125.09;5050624;28;20541;-81
2023/08/04 10:39:40;;;;;;;13.55;12.25;;;;;;;-141.97;34.42;47146.22;5030770;28;20612;-81
2023/08/04 10:42:08;;;;;;;14.63;13.15;;;;;;;-141.97;34.27;47159.69;5030245;28;20166;-82
2023/08/04 10:45:03;;;;;;;13.48;12.10;;;;;;;-141.97;34.12;47142.38;5041512;28;20187;-81
2023/08/04 10:47:39;;;;;;;13.63;12.20;;;;;;;-141.97;34.06;47165.44;5050768;28;20165;-81
2023/08/04 10:50:05;;;;;;;14.80;12.35;;;;;;;-141.97;33.83;47113.56;5050046;28;20229;-81
2023/08/04 10:52:32;;;;;;;13.73;12.32;;;;;;;-141.97;34.12;47109.72;5030849;28;20248;-81
2023/08/04 10:54:58;;;;;;;16.08;13.38;;;;;;;-141.97;33.75;47153.91;5031231;28;20268;-81
2023/08/04 10:57:28;;;;;;;14.77;12.50;;;;;;;-141.97;34.01;47159.69;5034924;28;20192;-81
2023/08/04 10:59:55;;;;;;;16.10;12.85;;;;;;;-141.97;33.85;47111.63;5053822;28;20161;-82